Jump to content

  •  

SKYWEST AIRLINES FLIGHT OO3594 FLOWN ON 01-06-2018 BY CAPTAIN DEREK ROGY

Pilot StatsCaptain Derek Rogy (LDP86) • 1,521.5 total hours • 815 total flights [View Logbook]
FLIGHT DETAILS
StatusReceived and approved on 2018-01-06 at 17:01:18
Origin AirportAspen-Pitkin Co-Sardy (KASE) • Aspen, Colorado, United States (7,818 feet MSL)
Filed Flight PlanFLIGHT PLANNER OFFLINE
Destination AirportSalt Lake City Intl (KSLC) • Salt Lake City, Utah, United States (4,226 feet MSL)
Alternate AirportNone Filed
AirlineSkywest Airlines
AircraftBombardier CRJ-700 (CR7 / CRJ-700)
FS Aircraft UsedCRJ700ER Delta Airways N367CA
Cruising AltitudeFL280
Distance Flown253 nautical miles
Passengers Onboard48 passengers (68.57% full)
DEPARTURE DETAILS
Time Out14:09:57
Taxi Data66,876 lbs total with 11,832 lbs of fuel onboard
Takeoff Data14:24:01 (14 minutes after leaving gate/ramp) • 66,552 lbs total • 9° pitch at 136 knots
Departure METARKASE 062053Z 33006KT 10SM BKN050 OVC075 04/M06 A3009 RMK AO2 SLP163 T00441061 56031
ARRIVAL DETAILS
Landing Data15:17:17 • 63,290 lbs total • 3° pitch doing 115 knots at a rate of -108.42 feet/minute with 8,169 lbs of fuel onboard
Time In15:18:41 (1 minute after landing)
Ramp Weight63,248 lbs total
Total Fuel Used3,663 lbs
Total Block Time01:08:32 (1.1 hours) while 15 minutes were spent on the ground
Arrival METARKSLC 062223Z 00000KT 1/2SM R16L/3500V5000FT SN FG BKN005 OVC018 01/01 A3011 RMK AO2 TWR VIS 2 RAE09SNB09 P0002 T00110006
MISCELLANEOUS DETAILS
LiveDISPATCH Version4.8.3.1
FS Version
FSUIPC Version5.12
OS VersionWindows 7 32-bit
Screen Resolution1920 x 1200
Pilot's CommentsNo Comments Reported
FLIGHT MAP